createdAt,value
2022-10-22T00:02:22.705Z,10.65
2022-10-22T00:04:50.376Z,10.70
2022-10-22T00:07:18.701Z,10.90
2022-10-22T00:09:45.915Z,10.52
2022-10-22T00:12:14.471Z,10.75
2022-10-22T00:14:42.386Z,11.05
2022-10-22T00:17:11.575Z,11.19
2022-10-22T00:19:39.758Z,11.40
2022-10-22T00:22:07.810Z,11.46
2022-10-22T00:24:35.711Z,11.64
2022-10-22T00:27:02.755Z,11.69
2022-10-22T00:29:29.519Z,11.42
2022-10-22T00:34:28.668Z,11.72
2022-10-22T00:36:55.603Z,11.65
2022-10-22T00:39:24.562Z,11.35
2022-10-22T00:41:53.057Z,11.34
2022-10-22T00:44:57.133Z,11.29
2022-10-22T00:47:25.553Z,11.08
2022-10-22T00:49:53.999Z,10.83
2022-10-22T00:52:21.790Z,11.04
2022-10-22T00:54:49.268Z,11.35
2022-10-22T00:57:17.966Z,11.40
2022-10-22T00:59:44.654Z,11.58
2022-10-22T01:02:11.606Z,11.68
2022-10-22T01:04:38.282Z,11.57
2022-10-22T01:07:05.204Z,11.74
2022-10-22T01:09:31.836Z,11.79
2022-10-22T01:12:22.865Z,11.76
2022-10-22T01:15:08.058Z,10.92
2022-10-22T01:17:49.952Z,10.99
2022-10-22T01:20:53.924Z,10.78
2022-10-22T01:23:32.366Z,10.75
2022-10-22T01:26:05.401Z,11.00
2022-10-22T01:28:47.225Z,11.24
2022-10-22T01:31:17.128Z,11.17
2022-10-22T01:33:47.446Z,11.20
2022-10-22T01:36:15.765Z,11.26
2022-10-22T01:38:44.843Z,11.46
2022-10-22T01:41:11.586Z,11.49
2022-10-22T01:43:38.261Z,11.52
2022-10-22T01:46:07.095Z,11.42
2022-10-22T01:48:55.197Z,11.53
2022-10-22T01:51:34.301Z,11.28
2022-10-22T01:54:15.341Z,11.24
2022-10-22T01:57:28.600Z,10.80
2022-10-22T02:00:08.995Z,10.33
2022-10-22T02:02:49.844Z,10.37
2022-10-22T02:05:43.883Z,10.04
2022-10-22T02:08:14.852Z,10.67
2022-10-22T02:10:46.714Z,10.92
2022-10-22T02:13:27.228Z,11.03
2022-10-22T02:15:55.979Z,11.12
2022-10-22T02:18:27.431Z,11.06
2022-10-22T02:20:54.830Z,11.16
2022-10-22T02:23:22.212Z,10.41
2022-10-22T02:25:55.754Z,10.30
2022-10-22T02:28:41.784Z,10.10
2022-10-22T02:31:25.984Z,10.21
2022-10-22T02:33:56.563Z,10.31
2022-10-22T02:36:23.903Z,10.46
2022-10-22T02:38:52.372Z,10.28
2022-10-22T02:41:20.020Z,10.66
2022-10-22T02:43:53.616Z,10.71
2022-10-22T02:46:20.652Z,10.60
2022-10-22T02:48:47.648Z,10.35
2022-10-22T02:51:14.647Z,10.30
2022-10-22T02:53:41.422Z,10.16
2022-10-22T02:56:08.390Z,10.55
2022-10-22T02:58:35.204Z,10.58
2022-10-22T03:01:02.506Z,10.62
2022-10-22T03:03:29.237Z,10.98
2022-10-22T03:05:55.846Z,10.93
2022-10-22T03:08:22.411Z,10.85
2022-10-22T03:10:49.055Z,11.21
2022-10-22T03:13:15.651Z,11.16
2022-10-22T03:15:42.323Z,11.09
2022-10-22T03:18:08.923Z,11.23
2022-10-22T03:20:35.565Z,11.24
2022-10-22T03:23:02.970Z,11.29
2022-10-22T03:25:34.414Z,11.33
2022-10-22T03:28:05.320Z,11.37
2022-10-22T03:30:32.206Z,11.38
2022-10-22T03:32:59.251Z,11.06
2022-10-22T03:35:26.209Z,11.13
2022-10-22T03:37:53.202Z,10.90
2022-10-22T03:40:20.656Z,11.02
2022-10-22T03:42:47.403Z,10.74
2022-10-22T03:45:14.074Z,11.00
2022-10-22T03:47:40.920Z,11.10
2022-10-22T03:50:08.477Z,11.11
2022-10-22T03:52:37.733Z,10.70
2022-10-22T03:55:06.043Z,10.13
2022-10-22T03:57:32.854Z,10.47
2022-10-22T03:59:59.620Z,10.53
2022-10-22T04:02:26.401Z,10.50
2022-10-22T04:04:52.992Z,10.70
2022-10-22T04:07:19.557Z,11.01
2022-10-22T04:09:46.145Z,11.10
2022-10-22T04:12:12.733Z,11.24
2022-10-22T04:14:39.305Z,11.31
2022-10-22T04:17:05.898Z,11.16
2022-10-22T04:19:33.042Z,10.33
2022-10-22T04:22:00.409Z,10.64
2022-10-22T04:24:27.516Z,10.41
2022-10-22T04:26:55.613Z,9.93
2022-10-22T04:29:23.310Z,10.03
2022-10-22T04:31:49.941Z,10.33
2022-10-22T04:34:16.657Z,10.18
2022-10-22T04:36:43.245Z,10.32
2022-10-22T04:39:09.842Z,10.46
2022-10-22T04:41:38.839Z,10.78
2022-10-22T04:44:06.696Z,10.96
2022-10-22T04:46:38.222Z,11.08
2022-10-22T04:49:11.274Z,11.22
2022-10-22T04:51:41.457Z,10.88
2022-10-22T04:54:15.381Z,10.87
2022-10-22T04:56:45.294Z,10.91
2022-10-22T04:59:17.399Z,10.77
2022-10-22T05:01:47.651Z,11.16
2022-10-22T05:04:17.495Z,11.02
2022-10-22T05:06:44.408Z,11.18
2022-10-22T05:09:14.095Z,11.03
2022-10-22T05:11:46.315Z,10.83
2022-10-22T05:14:13.749Z,10.44
2022-10-22T05:16:40.748Z,10.69
2022-10-22T05:19:07.625Z,10.91
2022-10-22T05:21:35.026Z,10.95
2022-10-22T05:24:10.426Z,11.01
2022-10-22T05:26:37.021Z,11.01
2022-10-22T05:29:03.739Z,10.99
2022-10-22T05:31:30.308Z,11.03
2022-10-22T05:33:56.979Z,11.09
2022-10-22T05:36:23.740Z,11.32
2022-10-22T05:38:50.788Z,11.17
2022-10-22T05:41:20.081Z,10.99
2022-10-22T05:43:47.032Z,11.31
2022-10-22T05:46:22.447Z,11.43
2022-10-22T05:48:54.517Z,11.20
2022-10-22T05:51:21.778Z,11.19
2022-10-22T05:53:54.384Z,11.16
2022-10-22T05:56:21.955Z,11.35
2022-10-22T05:58:48.675Z,11.44
2022-10-22T06:01:29.473Z,11.36
2022-10-22T06:03:58.806Z,11.25
2022-10-22T06:06:35.636Z,11.30
2022-10-22T06:09:13.627Z,11.34
2022-10-22T06:11:40.364Z,11.47
2022-10-22T06:14:07.092Z,11.51
2022-10-22T06:16:33.912Z,11.48
2022-10-22T06:19:02.288Z,11.35
2022-10-22T06:21:30.331Z,11.52
2022-10-22T06:23:59.218Z,11.77
2022-10-22T06:26:26.411Z,11.53
2022-10-22T06:28:53.104Z,11.42
2022-10-22T06:31:19.926Z,11.50
2022-10-22T06:33:46.532Z,11.70
2022-10-22T06:36:18.716Z,11.61
2022-10-22T06:38:45.650Z,11.48
2022-10-22T06:41:15.109Z,11.67
2022-10-22T06:43:45.328Z,11.91
2022-10-22T06:46:14.786Z,12.15
2022-10-22T06:48:48.352Z,12.35
2022-10-22T06:51:15.022Z,11.90
2022-10-22T06:53:41.979Z,11.96
2022-10-22T06:56:11.283Z,11.95
2022-10-22T06:58:38.271Z,12.45
2022-10-22T07:01:09.631Z,12.56
2022-10-22T07:03:36.510Z,12.71
2022-10-22T07:06:05.878Z,12.42
2022-10-22T07:08:34.398Z,12.68
2022-10-22T07:11:12.939Z,12.72
2022-10-22T07:13:39.918Z,12.96
2022-10-22T07:16:08.075Z,12.81
2022-10-22T07:18:35.885Z,12.57
2022-10-22T07:21:06.184Z,12.49
2022-10-22T07:23:33.050Z,12.79
2022-10-22T07:26:02.491Z,12.98
2022-10-22T07:28:30.745Z,12.76
2022-10-22T07:30:57.359Z,12.73
2022-10-22T07:33:23.969Z,12.58
2022-10-22T07:35:52.519Z,13.16
2022-10-22T07:38:19.086Z,12.77
2022-10-22T07:40:45.786Z,13.23
2022-10-22T07:43:12.358Z,12.97
2022-10-22T07:45:39.129Z,12.49
2022-10-22T07:48:06.168Z,13.21
2022-10-22T07:50:32.812Z,12.17
2022-10-22T07:52:59.497Z,13.13
2022-10-22T07:55:26.347Z,13.55
2022-10-22T07:57:53.246Z,13.48
2022-10-22T08:00:23.078Z,13.61
2022-10-22T08:02:52.283Z,13.41
2022-10-22T08:05:19.674Z,13.06
2022-10-22T08:07:46.306Z,13.54
2022-10-22T08:10:13.795Z,13.65
2022-10-22T08:12:41.000Z,13.85
2022-10-22T08:15:08.566Z,13.86
2022-10-22T08:17:35.244Z,13.99
2022-10-22T08:20:03.091Z,14.07
2022-10-22T08:22:29.771Z,14.08
2022-10-22T08:24:56.362Z,14.12
2022-10-22T08:27:23.181Z,13.95
2022-10-22T08:29:49.747Z,14.17
2022-10-22T08:32:16.691Z,14.07
2022-10-22T08:34:43.407Z,14.10
2022-10-22T08:37:14.224Z,14.56
2022-10-22T08:39:41.514Z,14.58
2022-10-22T08:42:35.593Z,14.41
2022-10-22T08:45:02.681Z,14.76
2022-10-22T08:47:31.887Z,14.84
2022-10-22T08:50:00.408Z,14.47
2022-10-22T08:52:27.174Z,14.07
2022-10-22T08:54:58.235Z,14.34
2022-10-22T08:57:49.894Z,14.28
2022-10-22T09:00:25.274Z,14.58
2022-10-22T09:03:08.163Z,14.44
2022-10-22T09:08:23.816Z,14.78
2022-10-22T09:11:21.590Z,14.96
2022-10-22T09:13:49.291Z,15.35
2022-10-22T09:16:24.610Z,15.07
2022-10-22T09:19:02.980Z,15.13
2022-10-22T09:21:42.689Z,15.25
2022-10-22T09:24:42.376Z,15.38
2022-10-22T09:27:35.359Z,15.43
2022-10-22T09:30:02.173Z,15.50
2022-10-22T09:32:29.086Z,15.23
2022-10-22T09:34:58.401Z,15.34
2022-10-22T09:37:28.458Z,15.60
2022-10-22T09:39:57.287Z,15.88
2022-10-22T09:42:23.875Z,15.93
2022-10-22T09:44:58.499Z,16.14
2022-10-22T09:47:43.579Z,15.83
2022-10-22T09:50:27.673Z,15.92
2022-10-22T09:53:35.581Z,15.66
2022-10-22T09:56:09.366Z,15.95
2022-10-22T09:58:44.072Z,15.93
2022-10-22T10:01:17.615Z,15.99
2022-10-22T10:03:44.293Z,16.08
2022-10-22T10:06:12.561Z,16.09
2022-10-22T10:08:39.336Z,16.39
2022-10-22T10:11:28.808Z,15.72
2022-10-22T10:14:14.145Z,16.22
2022-10-22T10:16:49.110Z,16.39
2022-10-22T10:19:18.657Z,16.19
2022-10-22T10:21:57.382Z,16.73
2022-10-22T10:24:30.110Z,16.50
2022-10-22T10:27:13.134Z,16.35
2022-10-22T10:29:54.718Z,16.66
2022-10-22T10:33:12.340Z,16.87
2022-10-22T10:35:56.943Z,16.85
2022-10-22T10:38:56.281Z,17.01
2022-10-22T10:41:35.995Z,16.51
2022-10-22T10:44:26.559Z,16.77
2022-10-22T10:46:53.132Z,17.19
2022-10-22T10:49:33.324Z,17.10
2022-10-22T10:52:21.445Z,17.03
2022-10-22T10:55:35.771Z,17.21
2022-10-22T10:58:12.490Z,16.95
2022-10-22T11:00:55.761Z,17.50
2022-10-22T11:03:40.338Z,17.33
2022-10-22T11:06:14.696Z,17.61
2022-10-22T11:08:46.736Z,17.89
2022-10-22T11:11:21.560Z,17.47
2022-10-22T11:14:03.407Z,17.80
2022-10-22T11:16:37.266Z,17.90
2022-10-22T11:19:49.562Z,17.69
2022-10-22T11:23:18.941Z,17.76
2022-10-22T11:25:48.497Z,17.84
2022-10-22T11:28:35.433Z,17.58
2022-10-22T11:31:10.550Z,17.58
2022-10-22T11:33:47.631Z,17.95
2022-10-22T11:36:15.912Z,18.17
2022-10-22T11:38:42.852Z,17.82
2022-10-22T11:41:16.893Z,18.12
2022-10-22T11:43:55.485Z,17.92
2022-10-22T11:46:21.993Z,18.22
2022-10-22T11:49:23.191Z,18.11
2022-10-22T11:51:50.471Z,17.89
2022-10-22T11:54:29.324Z,18.35
2022-10-22T11:57:25.398Z,18.23
2022-10-22T11:59:58.594Z,18.11
2022-10-22T12:02:27.798Z,18.27
2022-10-22T12:05:33.427Z,18.43
2022-10-22T12:08:27.175Z,18.33
2022-10-22T12:11:00.257Z,18.78
2022-10-22T12:13:58.809Z,18.43
2022-10-22T12:16:44.036Z,19.10
2022-10-22T12:19:18.368Z,19.10
2022-10-22T12:21:59.276Z,19.22
2022-10-22T12:24:34.413Z,18.75
2022-10-22T12:27:03.784Z,18.91
2022-10-22T12:29:32.870Z,19.25
2022-10-22T12:32:04.156Z,19.46
2022-10-22T12:34:30.903Z,19.16
2022-10-22T12:36:57.508Z,19.25
2022-10-22T12:39:28.003Z,19.27
2022-10-22T12:41:55.116Z,19.04
2022-10-22T12:44:21.939Z,19.30
2022-10-22T12:46:53.096Z,19.25
2022-10-22T12:49:30.746Z,19.47
2022-10-22T12:52:04.005Z,19.39
2022-10-22T12:54:33.137Z,19.53
2022-10-22T12:57:00.629Z,19.64
2022-10-22T12:59:35.467Z,19.53
2022-10-22T13:02:07.860Z,19.39
2022-10-22T13:04:38.044Z,19.42
2022-10-22T13:07:18.372Z,19.30
2022-10-22T13:09:58.222Z,19.50
2022-10-22T13:12:35.432Z,19.63
2022-10-22T13:15:20.965Z,19.43
2022-10-22T13:17:49.327Z,19.43
2022-10-22T13:20:18.415Z,19.30
2022-10-22T13:23:05.508Z,19.53
2022-10-22T13:25:34.692Z,19.54
2022-10-22T13:28:15.912Z,19.71
2022-10-22T13:30:53.553Z,19.67
2022-10-22T13:33:26.509Z,19.33
2022-10-22T13:35:55.166Z,19.27
2022-10-22T13:38:24.089Z,19.55
2022-10-22T13:40:50.963Z,19.49
2022-10-22T13:43:18.526Z,19.33
2022-10-22T13:45:47.129Z,19.58
2022-10-22T13:48:21.829Z,19.59
2022-10-22T13:50:50.042Z,19.61
2022-10-22T13:53:19.281Z,19.58
2022-10-22T13:55:46.182Z,19.53
2022-10-22T14:00:54.843Z,19.50
2022-10-22T14:03:26.420Z,19.38
2022-10-22T14:05:53.133Z,19.43
2022-10-22T14:08:22.450Z,19.40
2022-10-22T14:10:49.165Z,19.43
2022-10-22T14:13:17.624Z,19.32
2022-10-22T14:15:46.916Z,19.35
2022-10-22T14:18:24.267Z,19.30
2022-10-22T14:20:54.131Z,19.27
2022-10-22T14:23:23.259Z,19.14
2022-10-22T14:25:52.678Z,19.16
2022-10-22T14:28:19.431Z,19.05
2022-10-22T14:30:46.809Z,19.04
2022-10-22T14:33:14.962Z,18.97
2022-10-22T14:35:41.972Z,18.95
2022-10-22T14:38:11.413Z,18.98
2022-10-22T14:40:40.193Z,18.96
2022-10-22T14:43:06.848Z,18.94
2022-10-22T14:45:33.490Z,18.87
2022-10-22T14:48:00.158Z,18.81
2022-10-22T14:50:26.768Z,18.76
2022-10-22T14:53:05.971Z,18.67
2022-10-22T14:55:32.646Z,18.63
2022-10-22T14:57:59.295Z,18.72
2022-10-22T15:00:26.528Z,18.63
2022-10-22T15:02:55.751Z,18.57
2022-10-22T15:05:22.912Z,18.54
2022-10-22T15:07:49.557Z,18.45
2022-10-22T15:10:16.494Z,18.43
2022-10-22T15:12:43.232Z,18.32
2022-10-22T15:15:10.178Z,18.30
2022-10-22T15:17:36.858Z,18.23
2022-10-22T15:20:05.559Z,18.24
2022-10-22T15:22:35.277Z,18.17
2022-10-22T15:25:13.098Z,18.03
2022-10-22T15:27:39.929Z,17.98
2022-10-22T15:30:07.356Z,17.88
2022-10-22T15:32:34.205Z,17.81
2022-10-22T15:35:01.658Z,17.73
2022-10-22T15:37:28.383Z,17.76
2022-10-22T15:39:54.994Z,17.76
2022-10-22T15:42:23.318Z,17.66
2022-10-22T15:44:56.817Z,17.65
2022-10-22T15:47:25.299Z,17.66
2022-10-22T15:49:51.887Z,17.50
2022-10-22T15:52:18.517Z,17.47
2022-10-22T15:54:45.246Z,17.42
2022-10-22T15:57:11.938Z,17.33
2022-10-22T15:59:38.699Z,17.29
2022-10-22T16:02:05.317Z,17.28
2022-10-22T16:04:31.928Z,17.12
2022-10-22T16:06:59.263Z,17.13
2022-10-22T16:09:27.231Z,17.10
2022-10-22T16:11:55.147Z,17.07
2022-10-22T16:14:23.543Z,17.02
2022-10-22T16:16:55.509Z,17.00
2022-10-22T16:19:24.628Z,17.01
2022-10-22T16:21:53.932Z,17.03
2022-10-22T16:24:21.382Z,17.05
2022-10-22T16:26:48.724Z,17.05
2022-10-22T16:29:16.988Z,17.09
2022-10-22T16:31:44.095Z,16.96
2022-10-22T16:34:10.869Z,17.04
2022-10-22T16:36:38.400Z,16.70
2022-10-22T16:39:05.838Z,16.81
2022-10-22T16:41:35.527Z,16.86
2022-10-22T16:44:05.811Z,16.88
2022-10-22T16:46:33.382Z,16.91
2022-10-22T16:51:41.149Z,16.97
2022-10-22T16:54:11.337Z,17.04
2022-10-22T16:56:39.393Z,17.12
2022-10-22T16:59:06.920Z,17.16
2022-10-22T17:01:37.875Z,17.28
2022-10-22T17:04:06.289Z,17.27
2022-10-22T17:06:32.930Z,17.33
2022-10-22T17:08:59.692Z,17.41
2022-10-22T17:11:26.389Z,17.29
2022-10-22T17:13:54.433Z,17.04
2022-10-22T17:16:24.958Z,17.03
2022-10-22T17:18:53.594Z,17.07
2022-10-22T17:21:21.557Z,17.05
2022-10-22T17:23:48.242Z,17.01
2022-10-22T17:26:20.541Z,16.98
2022-10-22T17:28:48.016Z,17.06
2022-10-22T17:31:26.434Z,16.98
2022-10-22T17:33:55.352Z,17.04
2022-10-22T17:36:23.518Z,17.12
2022-10-22T17:38:52.892Z,17.20
2022-10-22T17:41:24.997Z,17.14
2022-10-22T17:43:51.789Z,17.10
2022-10-22T17:46:25.004Z,17.08
2022-10-22T17:48:57.101Z,16.94
2022-10-22T17:51:25.005Z,17.01
2022-10-22T17:53:52.612Z,16.98
2022-10-22T17:56:22.139Z,17.11
2022-10-22T17:58:49.193Z,16.96
2022-10-22T18:01:35.420Z,16.78
2022-10-22T18:04:08.023Z,16.92
2022-10-22T18:06:35.686Z,16.96
2022-10-22T18:09:18.655Z,16.85
2022-10-22T18:11:46.716Z,16.81
2022-10-22T18:14:13.403Z,16.94
2022-10-22T18:16:40.090Z,16.82
2022-10-22T18:19:06.714Z,16.83
2022-10-22T18:21:34.017Z,16.71
2022-10-22T18:24:00.643Z,16.69
2022-10-22T18:26:27.489Z,16.75
2022-10-22T18:28:54.876Z,16.15
2022-10-22T18:31:23.658Z,16.17
2022-10-22T18:33:50.834Z,16.26
2022-10-22T18:36:25.771Z,16.13
2022-10-22T18:38:58.791Z,16.21
2022-10-22T18:41:26.693Z,16.17
2022-10-22T18:43:55.298Z,16.21
2022-10-22T18:46:22.257Z,16.26
2022-10-22T18:48:51.676Z,16.30
2022-10-22T18:51:21.969Z,16.24
2022-10-22T18:54:05.035Z,16.26
2022-10-22T18:56:32.328Z,16.27
2022-10-22T18:58:58.984Z,16.22
2022-10-22T19:01:29.411Z,16.23
2022-10-22T19:03:56.953Z,16.21
2022-10-22T19:06:34.561Z,16.04
2022-10-22T19:09:04.389Z,16.13
2022-10-22T19:11:31.609Z,16.14
2022-10-22T19:13:58.573Z,16.16
2022-10-22T19:16:26.755Z,16.18
2022-10-22T19:19:03.045Z,16.15
2022-10-22T19:21:30.304Z,16.25
2022-10-22T19:23:58.989Z,16.27
2022-10-22T19:26:27.651Z,16.31
2022-10-22T19:28:55.043Z,16.27
2022-10-22T19:31:24.530Z,16.34
2022-10-22T19:33:54.564Z,16.14
2022-10-22T19:36:24.401Z,16.00
2022-10-22T19:38:51.249Z,16.06
2022-10-22T19:41:20.552Z,15.94
2022-10-22T19:44:04.990Z,15.85
2022-10-22T19:46:32.715Z,15.99
2022-10-22T19:48:59.837Z,15.58
2022-10-22T19:51:31.872Z,15.79
2022-10-22T19:54:00.839Z,15.79
2022-10-22T19:56:28.773Z,15.66
2022-10-22T19:58:55.517Z,15.76
2022-10-22T20:01:22.770Z,15.50
2022-10-22T20:03:52.882Z,15.67
2022-10-22T20:06:20.616Z,15.73
2022-10-22T20:08:48.379Z,15.74
2022-10-22T20:11:21.708Z,15.78
2022-10-22T20:13:51.389Z,15.81
2022-10-22T20:16:24.362Z,15.82
2022-10-22T20:18:52.727Z,15.90
2022-10-22T20:21:20.226Z,15.90
2022-10-22T20:23:48.213Z,15.75
2022-10-22T20:26:14.841Z,15.61
2022-10-22T20:28:41.569Z,15.73
2022-10-22T20:31:13.394Z,15.74
2022-10-22T20:33:40.246Z,15.81
2022-10-22T20:36:09.495Z,15.92
2022-10-22T20:41:06.614Z,15.82
2022-10-22T20:43:34.019Z,15.79
2022-10-22T20:46:01.101Z,15.81
2022-10-22T20:48:31.340Z,15.79
2022-10-22T20:51:01.941Z,15.84
2022-10-22T20:53:28.637Z,15.81
2022-10-22T20:55:59.021Z,15.79
2022-10-22T20:58:27.193Z,15.83
2022-10-22T21:00:54.782Z,15.81
2022-10-22T21:03:21.749Z,15.81
2022-10-22T21:05:48.669Z,15.76
2022-10-22T21:08:18.371Z,15.76
2022-10-22T21:10:46.520Z,15.46
2022-10-22T21:13:13.868Z,15.29
2022-10-22T21:15:40.790Z,15.41
2022-10-22T21:18:09.005Z,15.58
2022-10-22T21:20:35.919Z,15.10
2022-10-22T21:23:02.611Z,15.20
2022-10-22T21:25:29.260Z,15.48
2022-10-22T21:27:56.010Z,15.64
2022-10-22T21:30:22.587Z,15.71
2022-10-22T21:32:52.175Z,15.58
2022-10-22T21:35:18.889Z,15.71
2022-10-22T21:37:47.931Z,15.77
2022-10-22T21:40:14.655Z,15.73
2022-10-22T21:42:41.242Z,15.68
2022-10-22T21:45:12.379Z,15.74
2022-10-22T21:47:41.769Z,15.63
2022-10-22T21:50:08.912Z,15.65
2022-10-22T21:52:35.454Z,15.63
2022-10-22T21:55:02.051Z,15.66
2022-10-22T21:57:28.739Z,15.66
2022-10-22T21:59:55.405Z,15.61
2022-10-22T22:02:22.059Z,15.45
2022-10-22T22:04:50.636Z,15.53
2022-10-22T22:07:17.245Z,15.49
2022-10-22T22:09:43.865Z,15.44
2022-10-22T22:12:10.566Z,15.24
2022-10-22T22:14:38.106Z,15.36
2022-10-22T22:17:04.673Z,15.31
2022-10-22T22:19:31.307Z,15.29
2022-10-22T22:21:57.966Z,15.37
2022-10-22T22:24:24.795Z,15.44
2022-10-22T22:26:51.472Z,15.36
2022-10-22T22:29:18.144Z,13.74
2022-10-22T22:31:45.947Z,14.22
2022-10-22T22:34:15.250Z,14.97
2022-10-22T22:36:45.638Z,15.35
2022-10-22T22:39:15.262Z,15.48
2022-10-22T22:41:42.475Z,15.75
2022-10-22T22:44:09.273Z,15.95
2022-10-22T22:46:36.337Z,15.71
2022-10-22T22:49:03.495Z,15.77
2022-10-22T22:51:30.121Z,15.68
2022-10-22T22:54:00.407Z,15.66
2022-10-22T22:56:29.818Z,15.68
2022-10-22T22:58:56.604Z,15.66
2022-10-22T23:01:35.301Z,14.84
2022-10-22T23:04:30.192Z,14.82
2022-10-22T23:06:56.856Z,15.18
2022-10-22T23:09:23.773Z,15.37
2022-10-22T23:11:50.812Z,15.05
2022-10-22T23:14:18.947Z,15.17
2022-10-22T23:16:48.867Z,15.21
2022-10-22T23:19:17.661Z,15.08
2022-10-22T23:21:47.985Z,15.23
2022-10-22T23:24:17.955Z,15.01
2022-10-22T23:26:48.600Z,15.10
2022-10-22T23:29:24.128Z,14.82
2022-10-22T23:31:51.747Z,15.00
2022-10-22T23:34:20.825Z,15.23
2022-10-22T23:36:47.888Z,15.17
2022-10-22T23:39:17.229Z,15.19
2022-10-22T23:41:44.376Z,15.23
2022-10-22T23:44:11.839Z,15.26
2022-10-22T23:46:38.792Z,15.37
2022-10-22T23:49:07.063Z,15.26
2022-10-22T23:51:33.835Z,15.16
2022-10-22T23:54:02.344Z,15.03
2022-10-22T23:56:29.759Z,15.18
2022-10-22T23:58:57.223Z,15.18
